createdAt,value
2023-01-08T00:00:02.091Z,10.2
2023-01-08T00:15:01.711Z,10.25
2023-01-08T00:30:02.364Z,10.3
2023-01-08T00:45:01.988Z,10.33
2023-01-08T01:00:01.688Z,10.35
2023-01-08T01:15:02.282Z,10.38
2023-01-08T01:30:01.940Z,10.42
2023-01-08T01:45:01.622Z,10.47
2023-01-08T02:00:02.308Z,10.49
2023-01-08T02:15:01.968Z,10.53
2023-01-08T02:30:01.603Z,10.52
2023-01-08T02:45:02.218Z,10.46
2023-01-08T03:00:01.926Z,10.45
2023-01-08T03:15:01.582Z,10.43
2023-01-08T03:30:02.198Z,10.43
2023-01-08T03:45:01.792Z,10.43
2023-01-08T04:00:02.495Z,10.41
2023-01-08T04:15:02.166Z,10.37
2023-01-08T04:30:01.875Z,10.34
2023-01-08T04:45:02.505Z,10.38
2023-01-08T05:00:02.138Z,10.39
2023-01-08T05:15:01.815Z,10.35
2023-01-08T05:30:01.950Z,10.4
2023-01-08T05:45:01.551Z,10.43
2023-01-08T06:00:02.249Z,10.4
2023-01-08T06:15:01.876Z,10.42
2023-01-08T06:30:01.573Z,10.42
2023-01-08T06:45:02.205Z,10.44
2023-01-08T07:00:01.860Z,10.47
2023-01-08T07:15:02.530Z,10.49
2023-01-08T07:30:02.235Z,10.47
2023-01-08T07:45:01.832Z,10.46
2023-01-08T08:00:02.429Z,10.64
2023-01-08T08:15:02.023Z,10.27
2023-01-08T08:30:01.734Z,10.16
2023-01-08T08:45:02.388Z,10.05
2023-01-08T09:00:01.989Z,9.97
2023-01-08T09:15:01.605Z,9.9
2023-01-08T09:30:02.286Z,9.83
2023-01-08T09:45:01.958Z,9.8
2023-01-08T10:00:01.631Z,9.92
2023-01-08T10:15:02.296Z,10.1
2023-01-08T10:30:01.937Z,10.22
2023-01-08T10:45:01.552Z,10.42
2023-01-08T11:00:02.154Z,10.53
2023-01-08T11:15:01.841Z,10.68
2023-01-08T11:30:02.462Z,10.81
2023-01-08T11:45:02.066Z,10.92
2023-01-08T12:00:01.669Z,11.12
2023-01-08T12:15:02.346Z,10.96
2023-01-08T12:30:02.042Z,11.07
2023-01-08T12:45:01.674Z,11.04
2023-01-08T13:00:02.328Z,11.09
2023-01-08T13:15:01.991Z,11.08
2023-01-08T13:30:01.695Z,11
2023-01-08T13:45:02.322Z,10.9
2023-01-08T14:00:01.941Z,10.75
2023-01-08T14:15:01.600Z,10.58
2023-01-08T14:30:02.365Z,10.07
2023-01-08T14:45:01.969Z,10.04
2023-01-08T15:00:01.625Z,9.77
2023-01-08T15:15:02.275Z,9.47
2023-01-08T15:30:01.951Z,9.23
2023-01-08T15:45:01.597Z,9.1
2023-01-08T16:00:02.268Z,8.89
2023-01-08T16:15:01.905Z,8.73
2023-01-08T16:30:01.598Z,8.59
2023-01-08T16:45:02.224Z,8.49
2023-01-08T17:00:01.963Z,8.35
2023-01-08T17:15:01.683Z,8.19
2023-01-08T17:30:02.550Z,8
2023-01-08T17:45:02.262Z,7.84
2023-01-08T18:00:02.002Z,7.69
2023-01-08T18:15:01.710Z,7.68
2023-01-08T18:30:02.359Z,7.62
2023-01-08T18:45:02.004Z,7.58
2023-01-08T19:00:01.661Z,7.62
2023-01-08T19:15:02.269Z,7.64
2023-01-08T19:30:01.947Z,7.67
2023-01-08T19:45:01.568Z,7.66
2023-01-08T20:00:02.216Z,7.63
2023-01-08T20:15:01.843Z,7.55
2023-01-08T20:30:02.541Z,7.51
2023-01-08T20:45:02.177Z,7.44
2023-01-08T21:00:01.764Z,7.37
2023-01-08T21:15:02.431Z,7.31
2023-01-08T21:30:02.067Z,7.26
2023-01-08T21:45:01.705Z,7.35
2023-01-08T22:00:02.370Z,7.39
2023-01-08T22:15:01.952Z,7.44
2023-01-08T22:30:01.586Z,7.45
2023-01-08T22:45:02.241Z,7.46
2023-01-08T23:00:01.874Z,7.45
2023-01-08T23:15:02.541Z,7.5
2023-01-08T23:30:02.192Z,7.5
2023-01-08T23:45:01.837Z,7.59
